Weather at Cikcilli Heliport

Public forecast

Using degrees Celsius for public forecast. Weather courtesy of forecast.io.

Closest aviation weather report (METAR) to Cikcilli Heliport

Closest report is Antalya International Airport, 62.8 nm (116.3 km) WNW. Retrieved 2021/10/18 06:20 UTC (2 hours ago):

LTAI 180620Z 32008KT CAVOK 22/08 Q1016 NOSIG RMK RWY18C 31009KT RWY36R 32010KT RWY18L 31009KT

Closest aviation forecast (TAF) to Cikcilli Heliport

Closest forecast is Antalya International Airport, 62.8 nm (116.3 km) WNW. Retrieved 2021/10/18 06:03 UTC (2 hours ago):

TAF LTAI 180440Z 1806/1906 34006KT CAVOK BECMG 1806/1808 SCT030 BECMG 1808/1811 18010KT PROB40 1812/1816 FEW025CB SCT030 BECMG 1816/1820 34006KT CAVOK